Time;durP1;ratioP1;P1;durP2;ratioP2;P2;SDS_P1;SDS_P2;PMS_P1;PMS_P2;Temp;Humidity;BMP_temperature;BMP_pressure;BME280_temperature;BME280_humidity;BME280_pressure;Samples;Min_cycle;Max_cycle;Signal;HPM_P1;HPM_P2
2022/05/26 00:01:25;;;;;;;5.97;4.35;;;12.80;99.90;;;;;;4997811;28;20110;-73
2022/05/26 00:03:52;;;;;;;7.45;4.70;;;12.70;99.90;;;;;;4981880;28;20114;-74
2022/05/26 00:06:20;;;;;;;5.85;3.50;;;12.70;99.90;;;;;;4997402;28;20069;-74
2022/05/26 00:08:46;;;;;;;3.80;2.60;;;12.70;99.90;;;;;;4981753;28;20050;-74
2022/05/26 00:11:15;;;;;;;3.75;2.00;;;12.70;99.90;;;;;;4997966;28;20054;-72
2022/05/26 00:13:42;;;;;;;4.43;2.15;;;12.70;99.90;;;;;;4981336;28;20078;-73
2022/05/26 00:16:08;;;;;;;3.45;2.00;;;12.60;99.90;;;;;;4981698;28;20107;-72
2022/05/26 00:18:34;;;;;;;4.30;2.42;;;12.60;99.90;;;;;;4997108;28;20441;-71
2022/05/26 00:21:01;;;;;;;3.47;1.75;;;12.50;99.90;;;;;;4982906;28;20133;-72
2022/05/26 00:23:26;;;;;;;3.63;2.20;;;12.50;99.90;;;;;;4981207;28;20458;-71
2022/05/26 00:25:52;;;;;;;4.32;2.33;;;12.40;99.90;;;;;;4997646;28;20039;-70
2022/05/26 00:28:18;;;;;;;3.40;2.08;;;12.40;99.90;;;;;;4996974;28;20050;-72
2022/05/26 00:30:44;;;;;;;5.18;3.10;;;12.40;99.90;;;;;;4997191;28;20122;-75
2022/05/26 00:33:10;;;;;;;5.90;3.33;;;12.40;99.90;;;;;;4981589;28;20106;-73
2022/05/26 00:35:37;;;;;;;7.03;4.40;;;12.40;99.90;;;;;;4980637;28;20051;-74
2022/05/26 00:38:04;;;;;;;7.28;4.30;;;12.40;99.90;;;;;;4997747;28;20047;-71
2022/05/26 00:40:31;;;;;;;8.68;4.03;;;12.50;99.90;;;;;;4996877;28;20054;-74
2022/05/26 00:42:58;;;;;;;8.60;4.40;;;12.50;99.90;;;;;;4964911;28;20035;-73
2022/05/26 00:45:24;;;;;;;8.80;4.63;;;12.60;99.90;;;;;;4997140;28;20039;-75
2022/05/26 00:47:51;;;;;;;10.20;6.13;;;12.60;99.90;;;;;;4980344;28;20475;-73
2022/05/26 00:50:22;;;;;;;10.10;5.82;;;12.70;99.90;;;;;;4981566;28;20058;-73
2022/05/26 00:52:56;;;;;;;14.27;7.90;;;12.80;99.90;;;;;;4980591;28;20043;-74
2022/05/26 00:55:29;;;;;;;13.43;7.45;;;12.80;99.90;;;;;;4980960;28;20058;-73
2022/05/26 00:58:04;;;;;;;12.88;8.25;;;12.80;99.90;;;;;;4980360;28;20058;-74
2022/05/26 01:00:34;;;;;;;17.23;8.80;;;12.90;99.90;;;;;;4980866;28;20500;-73
2022/05/26 01:03:30;;;;;;;16.92;8.90;;;12.90;99.90;;;;;;4997107;28;20051;-78
2022/05/26 01:06:01;;;;;;;18.05;9.38;;;12.90;99.90;;;;;;4996422;28;20059;-74
2022/05/26 01:08:41;;;;;;;15.13;9.38;;;13.00;99.90;;;;;;4981012;28;20046;-74
2022/05/26 01:11:08;;;;;;;14.63;8.68;;;13.00;99.90;;;;;;4996815;28;20063;-74
2022/05/26 01:13:42;;;;;;;19.00;9.65;;;13.00;99.90;;;;;;4980408;28;20061;-75
2022/05/26 01:16:17;;;;;;;17.50;8.82;;;13.00;99.90;;;;;;4980732;28;20055;-71
2022/05/26 01:19:09;;;;;;;14.63;8.82;;;13.00;99.90;;;;;;4979445;28;20054;-71
2022/05/26 01:22:10;;;;;;;16.80;10.23;;;13.00;99.90;;;;;;4996869;28;20059;-73
2022/05/26 01:25:13;;;;;;;17.70;9.85;;;13.00;99.90;;;;;;4972970;28;20125;-77
2022/05/26 01:27:45;;;;;;;19.08;9.02;;;13.00;99.90;;;;;;4995837;28;20051;-73
2022/05/26 01:30:38;;;;;;;18.77;8.77;;;13.10;99.90;;;;;;4980441;28;20154;-74
2022/05/26 01:33:16;;;;;;;15.82;8.32;;;13.10;99.90;;;;;;4980649;28;20208;-75
2022/05/26 01:36:07;;;;;;;19.67;9.93;;;13.10;99.90;;;;;;4979836;28;20051;-74
2022/05/26 01:38:52;;;;;;;13.45;8.80;;;13.10;99.90;;;;;;4996311;28;20039;-73
2022/05/26 01:41:37;;;;;;;16.85;9.18;;;13.10;99.90;;;;;;4980293;28;20641;-74
2022/05/26 01:44:25;;;;;;;15.50;9.82;;;13.10;99.90;;;;;;4979413;28;20502;-73
2022/05/26 01:46:50;;;;;;;17.35;9.90;;;13.10;99.90;;;;;;4995752;28;20051;-72
2022/05/26 01:49:35;;;;;;;18.45;10.35;;;13.10;99.90;;;;;;4995776;28;20053;-75
2022/05/26 01:52:09;;;;;;;20.88;10.00;;;13.10;99.90;;;;;;4979691;28;20058;-75
2022/05/26 01:54:53;;;;;;;18.00;10.18;;;13.10;99.90;;;;;;4980189;28;20058;-76
2022/05/26 01:57:28;;;;;;;19.85;10.18;;;13.10;99.90;;;;;;4980552;28;20054;-73
2022/05/26 02:00:05;;;;;;;22.33;11.10;;;13.20;99.90;;;;;;4996034;28;20114;-72
2022/05/26 02:02:36;;;;;;;23.85;11.00;;;13.20;99.90;;;;;;4995750;28;20102;-72
2022/05/26 02:05:10;;;;;;;20.55;11.10;;;13.20;99.90;;;;;;4979481;28;20051;-74
2022/05/26 02:08:04;;;;;;;19.38;10.27;;;13.20;99.90;;;;;;4979880;28;20053;-75
2022/05/26 02:10:49;;;;;;;19.60;10.35;;;13.20;99.90;;;;;;4979313;28;20050;-73
2022/05/26 02:13:25;;;;;;;17.77;10.15;;;13.20;99.90;;;;;;4963475;28;20431;-73
2022/05/26 02:15:57;;;;;;;22.20;10.60;;;13.20;99.90;;;;;;4979647;28;20094;-72
2022/05/26 02:18:29;;;;;;;21.52;10.98;;;13.10;99.90;;;;;;4994827;28;20047;-76
2022/05/26 02:21:04;;;;;;;25.38;11.13;;;13.10;99.90;;;;;;4979507;28;20077;-74
2022/05/26 02:23:51;;;;;;;25.80;11.15;;;13.20;99.90;;;;;;4962939;28;20101;-71
2022/05/26 02:26:17;;;;;;;25.88;11.82;;;13.10;99.90;;;;;;4980559;28;20059;-73
2022/05/26 02:31:30;;;;;;;25.45;10.80;;;13.20;99.90;;;;;;4980122;28;20051;-73
2022/05/26 02:33:59;;;;;;;23.33;11.55;;;13.20;99.90;;;;;;4979433;28;20070;-72
2022/05/26 02:36:29;;;;;;;20.38;10.45;;;13.20;99.90;;;;;;4979151;28;20047;-73
2022/05/26 02:38:55;;;;;;;23.95;11.10;;;13.20;99.90;;;;;;4995376;28;20078;-73
2022/05/26 02:41:23;;;;;;;26.73;12.50;;;13.20;99.90;;;;;;4963510;28;20110;-73
2022/05/26 02:43:49;;;;;;;20.80;10.02;;;13.20;99.90;;;;;;4994776;28;20043;-74
2022/05/26 02:46:24;;;;;;;23.27;11.02;;;13.10;99.90;;;;;;4979505;28;20046;-74
2022/05/26 02:49:08;;;;;;;21.05;10.63;;;13.10;99.90;;;;;;4978542;28;20585;-73
2022/05/26 02:51:44;;;;;;;22.38;10.48;;;13.10;99.90;;;;;;4982297;28;20051;-73
2022/05/26 02:54:10;;;;;;;;;;;13.10;99.90;;;;;;4983872;28;20361;-74
2022/05/26 02:56:53;;;;;;;20.00;9.90;;;13.10;99.90;;;;;;5015244;28;19994;-73
2022/05/26 02:59:53;;;;;;;23.88;10.68;;;13.10;99.90;;;;;;4983637;28;20062;-72
2022/05/26 03:02:38;;;;;;;21.45;11.15;;;13.10;99.90;;;;;;4982611;28;20090;-73
2022/05/26 03:05:14;;;;;;;17.92;9.98;;;13.10;99.90;;;;;;4984175;28;20070;-73
2022/05/26 03:07:41;;;;;;;;;;;13.10;99.90;;;;;;4983707;28;20059;-73
2022/05/26 03:10:09;;;;;;;24.83;9.95;;;13.10;99.90;;;;;;5015185;28;19922;-72
2022/05/26 03:12:35;;;;;;;23.20;11.70;;;13.10;99.90;;;;;;4982821;28;20426;-73
2022/05/26 03:15:04;;;;;;;20.13;10.50;;;13.10;99.90;;;;;;4982554;28;20687;-73
2022/05/26 03:17:30;;;;;;;26.40;10.80;;;13.10;99.90;;;;;;4998180;28;20051;-73
2022/05/26 03:19:55;;;;;;;20.92;9.73;;;13.10;99.90;;;;;;4982799;28;20057;-72
2022/05/26 03:22:21;;;;;;;20.95;10.63;;;13.10;99.90;;;;;;4982149;28;20069;-73
2022/05/26 03:24:47;;;;;;;20.15;10.05;;;13.10;99.90;;;;;;4983095;28;20051;-72
2022/05/26 03:27:13;;;;;;;22.05;10.57;;;13.10;99.90;;;;;;4981876;28;20128;-73
2022/05/26 03:29:39;;;;;;;18.05;9.60;;;13.20;99.90;;;;;;4982780;28;20070;-72
2022/05/26 03:32:05;;;;;;;25.95;11.07;;;13.20;99.90;;;;;;4982005;28;20057;-72
2022/05/26 03:42:48;;;;;;;23.90;9.35;;;13.20;99.90;;;;;;4982150;28;20047;-73
2022/05/26 03:45:15;;;;;;;20.95;9.10;;;13.20;99.90;;;;;;4998121;28;20070;-73
2022/05/26 03:47:41;;;;;;;23.67;10.55;;;13.10;99.90;;;;;;4981424;28;20050;-72
2022/05/26 03:50:08;;;;;;;18.95;8.05;;;13.10;99.90;;;;;;4982664;28;20110;-72
2022/05/26 03:52:33;;;;;;;20.23;8.65;;;13.10;99.90;;;;;;4981729;28;20061;-72
2022/05/26 03:54:59;;;;;;;18.52;8.25;;;13.10;99.90;;;;;;4982242;28;20054;-73
2022/05/26 03:57:26;;;;;;;20.65;9.50;;;13.10;99.90;;;;;;4982807;28;20054;-72
2022/05/26 03:59:52;;;;;;;19.17;8.18;;;13.20;99.90;;;;;;4983408;28;20078;-72
2022/05/26 04:02:18;;;;;;;17.42;8.73;;;13.20;99.90;;;;;;4980307;28;20051;-72
2022/05/26 04:04:44;;;;;;;20.60;8.32;;;13.20;99.90;;;;;;4981793;28;20047;-72
2022/05/26 04:07:11;;;;;;;20.88;8.75;;;13.20;99.90;;;;;;4982052;28;20050;-72
2022/05/26 04:09:37;;;;;;;22.52;7.72;;;13.20;99.90;;;;;;4997522;28;20083;-72
2022/05/26 04:12:05;;;;;;;17.27;7.57;;;13.20;99.90;;;;;;4982016;28;20820;-72
2022/05/26 04:14:31;;;;;;;17.75;7.93;;;13.20;99.90;;;;;;4997481;28;20135;-71
2022/05/26 04:16:58;;;;;;;16.90;7.55;;;13.20;99.90;;;;;;4997363;28;20108;-72
2022/05/26 04:19:24;;;;;;;19.48;7.72;;;13.30;99.90;;;;;;4981154;28;20055;-73
2022/05/26 04:24:34;;;;;;;14.85;6.93;;;13.30;99.90;;;;;;4982123;28;20412;-72
2022/05/26 04:26:59;;;;;;;18.27;7.00;;;13.30;99.90;;;;;;4980907;28;20050;-72
2022/05/26 04:29:25;;;;;;;16.42;7.57;;;13.30;99.90;;;;;;4982863;28;20058;-72
2022/05/26 04:31:51;;;;;;;16.30;6.65;;;13.30;99.90;;;;;;4980895;28;20557;-71
2022/05/26 04:34:17;;;;;;;18.73;6.35;;;13.30;99.90;;;;;;4981166;28;20058;-71
2022/05/26 04:36:43;;;;;;;19.33;5.70;;;13.30;99.90;;;;;;4982549;28;20055;-72
2022/05/26 04:39:08;;;;;;;15.10;5.50;;;13.30;99.90;;;;;;4981150;28;20412;-71
2022/05/26 04:41:34;;;;;;;16.52;6.15;;;13.30;99.90;;;;;;4982894;28;20129;-71
2022/05/26 04:44:00;;;;;;;19.00;6.05;;;13.30;99.90;;;;;;4980759;28;20055;-71
2022/05/26 04:46:26;;;;;;;14.77;5.20;;;13.40;99.90;;;;;;4982707;28;20097;-74
2022/05/26 04:48:51;;;;;;;11.07;4.85;;;13.40;99.90;;;;;;4980317;28;20074;-72
2022/05/26 04:51:18;;;;;;;16.45;6.25;;;13.50;99.90;;;;;;4981007;28;20628;-73
2022/05/26 04:53:44;;;;;;;15.27;5.32;;;13.60;99.90;;;;;;4996905;28;20074;-72
2022/05/26 04:56:11;;;;;;;11.40;4.20;;;13.60;99.90;;;;;;4996877;28;20062;-73
2022/05/26 04:58:37;;;;;;;13.98;4.93;;;13.70;99.90;;;;;;4997484;28;20047;-72
2022/05/26 05:01:13;;;;;;;13.88;4.13;;;13.60;99.90;;;;;;4964220;28;20467;-71
2022/05/26 05:03:39;;;;;;;14.00;4.80;;;13.60;99.90;;;;;;4980923;28;20491;-73
2022/05/26 05:06:05;;;;;;;15.23;4.47;;;13.60;99.90;;;;;;4981620;28;20062;-73
2022/05/26 05:08:31;;;;;;;12.82;4.53;;;13.50;99.90;;;;;;4996821;28;20181;-72
2022/05/26 05:10:57;;;;;;;13.38;3.55;;;13.60;99.90;;;;;;4980466;28;20085;-72
2022/05/26 05:13:23;;;;;;;7.05;3.28;;;13.60;99.90;;;;;;4981487;28;20055;-74
2022/05/26 05:16:06;;;;;;;13.70;3.33;;;13.70;99.90;;;;;;4980696;28;20126;-76
2022/05/26 05:18:32;;;;;;;8.05;3.10;;;13.80;99.90;;;;;;4995766;28;20047;-73
2022/05/26 05:21:03;;;;;;;8.32;3.00;;;13.80;99.90;;;;;;4981792;28;20462;-72
2022/05/26 05:23:29;;;;;;;8.82;2.65;;;13.90;99.90;;;;;;4979967;28;20058;-74
2022/05/26 05:25:56;;;;;;;10.15;2.92;;;13.80;99.90;;;;;;4981576;28;20054;-74
2022/05/26 05:28:34;;;;;;;6.60;2.20;;;13.80;99.90;;;;;;4981814;28;20059;-73
2022/05/26 05:31:10;;;;;;;6.55;2.15;;;13.70;99.90;;;;;;4996272;28;20046;-74
2022/05/26 05:33:52;;;;;;;5.70;2.53;;;13.70;99.90;;;;;;4980351;28;20057;-75
2022/05/26 05:36:25;;;;;;;7.38;2.45;;;13.60;99.90;;;;;;4979631;28;20066;-73
2022/05/26 05:38:51;;;;;;;7.45;2.53;;;13.60;99.90;;;;;;4980140;28;20051;-75
2022/05/26 05:41:20;;;;;;;5.43;1.95;;;13.60;99.90;;;;;;4996507;28;20055;-74
2022/05/26 05:43:45;;;;;;;8.05;2.50;;;13.60;99.90;;;;;;4995625;28;20047;-73
2022/05/26 05:46:11;;;;;;;6.65;1.88;;;13.70;99.90;;;;;;4980293;28;20070;-74
2022/05/26 05:48:37;;;;;;;7.75;1.90;;;13.80;99.90;;;;;;4978918;28;20074;-72
2022/05/26 05:51:04;;;;;;;7.07;2.08;;;13.80;99.90;;;;;;4980132;28;20055;-73
2022/05/26 05:53:30;;;;;;;6.40;1.75;;;13.90;99.90;;;;;;4979741;28;20882;-73
2022/05/26 05:55:55;;;;;;;6.45;1.83;;;14.00;99.90;;;;;;4979943;28;20039;-71
2022/05/26 05:58:21;;;;;;;5.78;2.05;;;14.00;99.90;;;;;;4981412;28;20051;-72
2022/05/26 06:00:47;;;;;;;10.15;2.25;;;14.10;99.90;;;;;;4979537;28;20047;-75
2022/05/26 06:03:13;;;;;;;4.00;1.67;;;14.20;99.90;;;;;;4980111;28;20055;-74
2022/05/26 06:05:38;;;;;;;5.60;1.42;;;14.20;99.90;;;;;;4979300;28;20058;-74
2022/05/26 06:08:05;;;;;;;4.50;1.92;;;14.30;99.90;;;;;;4979721;28;20110;-76
2022/05/26 06:10:32;;;;;;;5.65;1.60;;;14.30;99.90;;;;;;4979210;28;20114;-72
2022/05/26 06:12:58;;;;;;;3.85;1.27;;;14.30;99.90;;;;;;4979606;28;20043;-73
2022/05/26 06:15:24;;;;;;;3.97;1.27;;;14.40;99.90;;;;;;4979530;28;20070;-72
2022/05/26 06:17:51;;;;;;;4.15;1.75;;;14.40;99.90;;;;;;4978865;28;20074;-72
2022/05/26 06:20:17;;;;;;;6.30;1.50;;;14.50;99.90;;;;;;4979826;28;20129;-73
2022/05/26 06:22:45;;;;;;;4.07;1.65;;;14.50;99.90;;;;;;4962813;28;20057;-73
2022/05/26 06:25:13;;;;;;;5.43;1.60;;;14.60;99.90;;;;;;4994975;28;20061;-71
2022/05/26 06:30:30;;;;;;;4.75;1.23;;;14.70;99.90;;;;;;4980707;28;20054;-72
2022/05/26 06:38:32;;;;;;;4.97;1.15;;;14.60;99.90;;;;;;4979546;28;20110;-72
2022/05/26 06:42:05;;;;;;;1.60;0.80;;;14.60;99.90;;;;;;4978931;28;20030;-71
2022/05/26 06:43:44;;;;;;;2.70;1.05;;;14.60;99.90;;;;;;4992451;28;20055;-74
2022/05/26 06:46:09;;;;;;;3.75;0.93;;;14.50;99.90;;;;;;4995908;28;20142;-71
2022/05/26 06:48:35;;;;;;;2.50;0.85;;;14.50;99.90;;;;;;4978277;28;20076;-73
2022/05/26 06:51:01;;;;;;;4.57;0.90;;;14.50;99.90;;;;;;4979268;28;20396;-74
2022/05/26 06:53:26;;;;;;;4.47;1.27;;;14.60;99.90;;;;;;4978815;28;20133;-73
2022/05/26 06:55:52;;;;;;;3.70;0.82;;;14.70;99.90;;;;;;4962539;28;20046;-71
2022/05/26 06:58:18;;;;;;;4.45;0.88;;;14.80;99.90;;;;;;4995167;28;20082;-73
2022/05/26 07:00:45;;;;;;;4.25;0.82;;;14.80;99.90;;;;;;4978318;28;20081;-71
2022/05/26 07:03:13;;;;;;;3.35;1.00;;;14.80;99.90;;;;;;4995145;28;20062;-73
2022/05/26 07:05:38;;;;;;;4.15;0.70;;;14.80;99.90;;;;;;5010691;28;20054;-72
2022/05/26 07:08:04;;;;;;;4.78;0.60;;;14.90;99.90;;;;;;4995072;28;20116;-76
2022/05/26 07:10:33;;;;;;;4.13;0.80;;;14.80;99.90;;;;;;4978615;28;20120;-74
2022/05/26 07:12:59;;;;;;;1.90;0.90;;;14.90;99.90;;;;;;4995099;28;20058;-73
2022/05/26 07:15:25;;;;;;;4.03;1.52;;;14.90;99.90;;;;;;4994916;28;20059;-76
2022/05/26 07:17:51;;;;;;;4.00;2.13;;;15.00;99.90;;;;;;4994389;28;20054;-73
2022/05/26 07:20:16;;;;;;;3.78;0.98;;;15.10;99.90;;;;;;4978682;28;20066;-73
2022/05/26 07:22:42;;;;;;;4.18;0.70;;;15.20;99.90;;;;;;4980449;28;20102;-73
2022/05/26 07:25:08;;;;;;;2.92;1.05;;;15.20;99.90;;;;;;5011251;28;20049;-74
2022/05/26 07:27:34;;;;;;;1.25;0.60;;;15.20;99.90;;;;;;4993467;28;20042;-76
2022/05/26 07:30:01;;;;;;;2.72;0.88;;;15.20;99.90;;;;;;4978496;28;20053;-74
2022/05/26 07:32:27;;;;;;;2.33;0.80;;;15.20;99.90;;;;;;4977975;28;20078;-74
2022/05/26 07:34:52;;;;;;;4.15;0.70;;;15.10;99.90;;;;;;4994535;28;20051;-76
2022/05/26 07:42:48;;;;;;;2.85;0.70;;;15.30;99.90;;;;;;4981592;28;20050;-73
2022/05/26 07:45:14;;;;;;;2.83;0.80;;;15.40;99.90;;;;;;4982174;28;20066;-72
2022/05/26 07:47:39;;;;;;;2.42;1.02;;;15.50;99.90;;;;;;4981175;28;20050;-75
2022/05/26 07:50:10;;;;;;;2.70;0.80;;;15.60;99.90;;;;;;4979294;28;20078;-71
2022/05/26 07:52:35;;;;;;;4.03;0.90;;;15.80;99.90;;;;;;5011961;28;20062;-73
2022/05/26 07:55:01;;;;;;;4.28;0.80;;;15.90;99.90;;;;;;4995418;28;20050;-74
2022/05/26 07:57:28;;;;;;;3.17;0.70;;;15.90;99.90;;;;;;4995574;28;20050;-75
2022/05/26 07:59:56;;;;;;;3.33;0.70;;;15.90;99.90;;;;;;4979369;28;20125;-74
2022/05/26 08:02:21;;;;;;;2.15;0.80;;;16.00;99.90;;;;;;4980502;28;20093;-76
2022/05/26 08:04:47;;;;;;;5.85;1.23;;;15.90;99.90;;;;;;4996779;28;20047;-73
2022/05/26 08:07:14;;;;;;;1.85;0.63;;;15.90;99.90;;;;;;5007995;28;20375;-74
2022/05/26 08:09:40;;;;;;;1.83;0.60;;;15.90;99.90;;;;;;4988756;28;20043;-72
2022/05/26 08:12:11;;;;;;;4.03;0.80;;;15.90;99.90;;;;;;4979539;28;20047;-73
2022/05/26 08:14:38;;;;;;;2.20;0.60;;;15.90;99.90;;;;;;4996288;28;20050;-73
2022/05/26 08:17:04;;;;;;;3.15;0.70;;;15.90;99.90;;;;;;4980137;28;20055;-72
2022/05/26 08:19:30;;;;;;;2.33;0.70;;;15.80;99.90;;;;;;4980742;28;20061;-73
2022/05/26 08:21:56;;;;;;;1.98;0.70;;;15.90;99.90;;;;;;4997038;28;20066;-74
2022/05/26 08:24:24;;;;;;;1.73;0.70;;;15.90;99.90;;;;;;4981448;28;20055;-72
2022/05/26 08:26:50;;;;;;;2.38;0.60;;;15.90;99.90;;;;;;4980178;28;20062;-75
2022/05/26 08:29:16;;;;;;;3.13;0.85;;;16.00;99.90;;;;;;4981455;28;20051;-74
2022/05/26 08:31:42;;;;;;;1.02;0.50;;;16.00;99.90;;;;;;4980369;28;20050;-74
2022/05/26 08:34:08;;;;;;;3.22;0.75;;;16.00;99.90;;;;;;4965045;28;20399;-73
2022/05/26 08:36:35;;;;;;;3.80;0.82;;;16.00;99.90;;;;;;4980772;28;20046;-73
2022/05/26 08:39:01;;;;;;;1.30;0.70;;;16.10;99.90;;;;;;4980874;28;20524;-76
2022/05/26 08:41:33;;;;;;;2.85;0.63;;;16.00;99.90;;;;;;4980926;28;20106;-73
2022/05/26 08:44:10;;;;;;;3.15;0.80;;;15.90;99.90;;;;;;4996417;28;20051;-74
2022/05/26 08:46:49;;;;;;;2.22;0.60;;;15.90;99.90;;;;;;4961541;29;20083;-74
2022/05/26 08:49:23;;;;;;;2.67;0.68;;;16.10;99.90;;;;;;4992144;28;20043;-74
2022/05/26 08:51:55;;;;;;;4.75;0.90;;;16.10;99.90;;;;;;4962488;28;20043;-77
2022/05/26 08:54:26;;;;;;;1.83;0.60;;;16.10;99.90;;;;;;4961490;29;20117;-73
2022/05/26 08:56:56;;;;;;;3.55;0.82;;;16.10;99.90;;;;;;4976674;28;20075;-74
2022/05/26 08:59:38;;;;;;;2.25;0.80;;;16.20;99.90;;;;;;4961326;29;20051;-74
2022/05/26 09:02:04;;;;;;;3.33;0.75;;;16.30;99.90;;;;;;4992622;28;20047;-73
2022/05/26 09:04:30;;;;;;;2.33;0.60;;;16.50;99.90;;;;;;4992507;28;20142;-76
2022/05/26 09:12:57;;;;;;;2.17;0.65;;;16.80;99.90;;;;;;4993016;28;20051;-73
2022/05/26 09:15:28;;;;;;;2.35;0.60;;;16.80;99.90;;;;;;4965958;28;20078;-75
2022/05/26 09:17:55;;;;;;;3.20;0.60;;;16.90;99.90;;;;;;4979551;28;20055;-71
2022/05/26 09:20:40;;;;;;;2.13;0.70;;;17.10;99.90;;;;;;4981452;28;20046;-71
2022/05/26 09:23:23;;;;;;;2.28;0.70;;;17.20;99.90;;;;;;4995434;28;20101;-77
2022/05/26 09:25:54;;;;;;;1.52;0.52;;;17.40;99.90;;;;;;4979513;28;20045;-73
2022/05/26 09:28:29;;;;;;;2.42;0.60;;;17.30;99.90;;;;;;4980056;28;20141;-76
2022/05/26 09:30:54;;;;;;;2.10;0.80;;;17.10;99.90;;;;;;4979577;28;20051;-75
2022/05/26 09:33:30;;;;;;;2.58;0.70;;;16.80;99.90;;;;;;4979578;28;20054;-72
2022/05/26 09:36:36;;;;;;;4.53;0.98;;;16.70;99.90;;;;;;4979034;28;20706;-76
2022/05/26 09:39:03;;;;;;;3.17;0.70;;;16.70;99.90;;;;;;4989235;28;20058;-72
2022/05/26 09:41:41;;;;;;;1.48;0.57;;;16.50;99.90;;;;;;4978736;28;20051;-73
2022/05/26 09:44:37;;;;;;;1.65;0.63;;;16.50;99.90;;;;;;4980600;28;20039;-74
2022/05/26 09:47:30;;;;;;;2.22;0.60;;;16.30;99.90;;;;;;4979217;28;20074;-74
2022/05/26 09:50:00;;;;;;;3.03;0.73;;;16.30;99.90;;;;;;4995984;28;20057;-74
2022/05/26 09:52:30;;;;;;;2.90;0.90;;;16.20;99.90;;;;;;4995410;28;20085;-73
2022/05/26 09:55:19;;;;;;;2.60;0.68;;;16.10;99.90;;;;;;4979357;28;20050;-73
2022/05/26 09:57:46;;;;;;;2.97;0.80;;;16.20;99.90;;;;;;4979107;28;20058;-72
2022/05/26 10:00:33;;;;;;;1.70;0.60;;;16.20;99.90;;;;;;4978641;28;20065;-72
2022/05/26 10:03:03;;;;;;;1.25;0.50;;;16.40;99.90;;;;;;4979422;28;20073;-74
2022/05/26 10:05:45;;;;;;;3.30;0.75;;;16.50;99.90;;;;;;4962869;28;20039;-73
2022/05/26 10:09:02;;;;;;;3.00;0.65;;;16.60;99.90;;;;;;4962572;28;20061;-73
2022/05/26 10:11:44;;;;;;;2.63;0.80;;;16.50;99.90;;;;;;4969906;28;20117;-75
2022/05/26 10:14:51;;;;;;;4.07;0.90;;;16.60;99.90;;;;;;4978650;28;20055;-75
2022/05/26 10:17:23;;;;;;;;;;;16.90;99.90;;;;;;4995273;28;20082;-74
2022/05/26 10:20:14;;;;;;;2.38;0.75;;;17.20;99.90;;;;;;4979375;28;19957;-79
2022/05/26 10:23:19;;;;;;;3.47;0.65;;;17.30;99.90;;;;;;4978596;28;20050;-74
2022/05/26 10:26:04;;;;;;;2.05;0.63;;;17.20;99.90;;;;;;4979676;28;20059;-73
2022/05/26 10:28:45;;;;;;;4.53;0.82;;;17.10;99.90;;;;;;4979470;28;20047;-73
2022/05/26 10:31:33;;;;;;;2.15;0.73;;;16.90;99.90;;;;;;4994472;28;20066;-79
2022/05/26 10:34:35;;;;;;;2.58;0.70;;;16.80;99.90;;;;;;4994922;28;20054;-72
2022/05/26 10:37:40;;;;;;;1.58;0.60;;;16.70;99.90;;;;;;4979452;28;20057;-72
2022/05/26 10:40:28;;;;;;;1.52;0.70;;;16.70;99.90;;;;;;4978421;28;20067;-73
2022/05/26 10:43:00;;;;;;;2.72;0.80;;;16.70;99.90;;;;;;4978300;28;20042;-76
2022/05/26 10:45:38;;;;;;;2.53;0.70;;;16.60;99.90;;;;;;4979257;28;20047;-73
2022/05/26 10:48:19;;;;;;;2.97;0.80;;;16.70;99.90;;;;;;4977896;28;20101;-73
2022/05/26 10:51:19;;;;;;;1.92;0.73;;;16.70;99.90;;;;;;4979058;28;20055;-78
2022/05/26 10:53:54;;;;;;;1.83;0.60;;;16.70;99.90;;;;;;4979045;28;20426;-76
2022/05/26 10:56:50;;;;;;;2.35;0.80;;;16.90;99.90;;;;;;4994537;28;20638;-75
2022/05/26 10:59:18;;;;;;;2.03;0.93;;;17.10;99.90;;;;;;4962651;28;20050;-77
2022/05/26 11:02:01;;;;;;;3.63;0.90;;;17.10;99.90;;;;;;4978108;28;20105;-75
2022/05/26 11:04:42;;;;;;;3.15;0.93;;;17.10;99.90;;;;;;4978273;28;20058;-73
2022/05/26 11:07:17;;;;;;;2.65;0.95;;;17.20;99.90;;;;;;4979139;28;20051;-76
2022/05/26 11:09:52;;;;;;;3.13;0.90;;;17.30;99.90;;;;;;4994188;28;20086;-73
2022/05/26 11:12:33;;;;;;;2.50;0.70;;;17.30;99.90;;;;;;4996664;28;20594;-74
2022/05/26 11:18:02;;;;;;;2.22;1.23;;;17.00;99.90;;;;;;4981150;28;20066;-73
2022/05/26 11:20:40;;;;;;;2.55;0.88;;;16.70;99.90;;;;;;4998942;28;20043;-74
2022/05/26 11:23:07;;;;;;;3.00;1.10;;;16.60;99.90;;;;;;4981853;28;20082;-71
2022/05/26 11:25:44;;;;;;;3.65;1.13;;;16.50;99.90;;;;;;4981757;28;20098;-74
2022/05/26 11:28:26;;;;;;;4.47;1.75;;;16.40;99.90;;;;;;4982472;28;20054;-71
2022/05/26 11:36:56;;;;;;;3.65;1.15;;;17.00;99.90;;;;;;4982176;28;20046;-72
2022/05/26 11:39:35;;;;;;;2.70;1.20;;;17.10;99.90;;;;;;4981335;28;20066;-73
2022/05/26 11:42:12;;;;;;;3.17;1.30;;;17.10;99.90;;;;;;4981324;28;20058;-74
2022/05/26 11:44:56;;;;;;;3.05;1.20;;;17.20;99.90;;;;;;4997502;28;20054;-73
2022/05/26 11:47:47;;;;;;;3.67;1.08;;;17.20;99.90;;;;;;4997055;28;20066;-71
2022/05/26 11:50:31;;;;;;;1.88;0.90;;;17.30;99.90;;;;;;4983363;28;20102;-74
2022/05/26 11:52:58;;;;;;;4.05;1.17;;;17.50;99.90;;;;;;4980931;28;20058;-74
2022/05/26 11:55:48;;;;;;;2.08;1.05;;;17.50;99.90;;;;;;4981533;28;20134;-76
2022/05/26 11:58:29;;;;;;;1.90;1.00;;;17.50;99.90;;;;;;4982014;28;20067;-75
2022/05/26 12:01:13;;;;;;;4.07;1.00;;;17.40;99.90;;;;;;4964824;28;20054;-73
2022/05/26 12:03:54;;;;;;;2.92;0.98;;;17.50;99.90;;;;;;4964302;28;20057;-76
2022/05/26 12:06:38;;;;;;;3.58;1.10;;;17.50;99.90;;;;;;4998420;28;20051;-75
2022/05/26 12:09:07;;;;;;;1.70;0.70;;;17.40;99.90;;;;;;4981080;28;20165;-77
2022/05/26 12:12:03;;;;;;;1.83;1.00;;;17.30;99.90;;;;;;4965427;28;20128;-81
2022/05/26 12:14:47;;;;;;;3.22;1.02;;;17.20;99.90;;;;;;4980697;28;20055;-75
2022/05/26 12:17:34;;;;;;;3.40;0.93;;;17.40;99.90;;;;;;4980463;28;20058;-76
2022/05/26 12:20:12;;;;;;;3.85;1.15;;;17.80;99.90;;;;;;4980424;28;20050;-76
2022/05/26 12:22:57;;;;;;;3.50;0.90;;;18.00;99.90;;;;;;4978487;28;20158;-75
2022/05/26 12:25:27;;;;;;;4.22;1.13;;;18.00;99.90;;;;;;4980154;28;20066;-73
2022/05/26 12:28:14;;;;;;;1.83;0.80;;;18.00;99.90;;;;;;4997166;28;20046;-74
2022/05/26 12:30:46;;;;;;;3.35;0.80;;;18.10;99.90;;;;;;4996954;28;20105;-78
2022/05/26 12:33:20;;;;;;;3.33;0.73;;;18.20;99.90;;;;;;4980279;28;20054;-74
2022/05/26 12:36:26;;;;;;;2.42;0.80;;;18.20;99.90;;;;;;4979851;28;20050;-73
2022/05/26 12:39:10;;;;;;;2.25;1.17;;;18.40;99.90;;;;;;4981860;28;20063;-75
2022/05/26 12:41:58;;;;;;;2.70;0.80;;;18.50;99.90;;;;;;4997078;28;20054;-75
2022/05/26 12:44:54;;;;;;;2.53;0.80;;;18.50;99.90;;;;;;4996571;28;20122;-73
2022/05/26 12:47:38;;;;;;;4.22;1.00;;;18.40;99.90;;;;;;4979992;28;20110;-75
2022/05/26 12:50:05;;;;;;;3.78;0.80;;;18.30;99.90;;;;;;4981057;28;20046;-75
2022/05/26 12:52:41;;;;;;;2.78;1.00;;;18.50;99.90;;;;;;4981344;28;20138;-77
2022/05/26 12:55:38;;;;;;;3.03;0.80;;;18.50;99.90;;;;;;4980161;28;20086;-75
2022/05/26 12:58:06;;;;;;;;;;;18.40;99.90;;;;;;4981180;28;20515;-76
2022/05/26 13:00:35;;;;;;;2.45;0.90;;;18.30;99.90;;;;;;4979928;28;19933;-79
2022/05/26 13:03:05;;;;;;;3.10;1.02;;;18.20;99.90;;;;;;4980379;28;20047;-78
2022/05/26 13:05:35;;;;;;;2.05;0.90;;;18.30;99.90;;;;;;4979851;28;20062;-74
2022/05/26 13:08:03;;;;;;;2.38;0.88;;;18.40;99.90;;;;;;4979694;28;20547;-74
2022/05/26 13:10:35;;;;;;;2.13;0.73;;;18.40;99.90;;;;;;4996189;28;20043;-74
2022/05/26 13:13:05;;;;;;;3.47;1.10;;;18.50;99.90;;;;;;4980064;28;20117;-74
2022/05/26 13:15:31;;;;;;;3.10;1.20;;;18.50;99.90;;;;;;4977241;28;20546;-74
2022/05/26 13:17:57;;;;;;;3.40;0.80;;;18.50;99.90;;;;;;4995716;28;20058;-74
2022/05/26 13:20:34;;;;;;;3.55;1.08;;;18.50;99.90;;;;;;4980909;28;20050;-75
2022/05/26 13:23:01;;;;;;;4.85;0.85;;;18.60;99.90;;;;;;4981047;28;20057;-76
2022/05/26 13:25:29;;;;;;;2.83;1.05;;;18.60;99.90;;;;;;4980013;28;20051;-74
2022/05/26 13:28:02;;;;;;;2.35;1.02;;;18.50;99.90;;;;;;4980137;28;20110;-73
2022/05/26 13:33:44;;;;;;;1.90;0.82;;;18.50;99.90;;;;;;4965989;28;20085;-75
2022/05/26 13:36:17;;;;;;;2.92;1.02;;;18.40;99.90;;;;;;4979522;28;20062;-74
2022/05/26 13:38:46;;;;;;;3.35;1.23;;;18.30;99.90;;;;;;4981121;28;20268;-78
2022/05/26 13:41:23;;;;;;;4.65;1.50;;;18.20;99.90;;;;;;4996526;28;20047;-76
2022/05/26 13:43:50;;;;;;;2.67;1.00;;;18.10;99.90;;;;;;4979652;28;20130;-73
2022/05/26 13:46:34;;;;;;;2.80;1.02;;;18.10;99.90;;;;;;4979832;28;20129;-76
2022/05/26 13:49:20;;;;;;;5.15;1.20;;;18.00;99.90;;;;;;4979382;28;20053;-76
2022/05/26 13:51:49;;;;;;;5.03;1.25;;;18.00;99.90;;;;;;4963144;28;20058;-73
2022/05/26 13:54:33;;;;;;;4.68;1.40;;;17.90;99.90;;;;;;4979957;28;20495;-74
2022/05/26 13:57:02;;;;;;;3.88;1.10;;;17.90;99.90;;;;;;4979428;28;20399;-76
2022/05/26 13:59:34;;;;;;;3.90;1.10;;;17.90;99.90;;;;;;4979836;28;20059;-78